Aérodrome :
LOGIN :

S'inscrire | Disclaimer

   EN    FR    IT 

 










Légende :    VFR   VFR Marginal   IFR   IFR Intensif   IFR Très Intensif
Visi : 
Plafond : 
>= 8 km
>= 3000ft
5 à 8 km
1000 à 3000 ft
1500m à 5 km
500 à 1000 ft
800 à 1500m
200 à 500 ft
< 800m
< 200 ft
Symboles :   Orages  Brouillard  Fortes neiges  Fortes précipitations  Vent > 20 kt
SIGMETs :   Divers  Orages  Givrage  Turbulence  Onde Orograph.  Cendres Volcan.







- Altitude de l'aérodrome : 1046 ft
- Code IATA : NUE


EDDN - Nuremberg

DERNIER METAR :
  • 290650Z 29009KT 9999 -RA BKN009 BKN035 16/15 Q0997 RERA NOSIG

METARs EXPIRÉS :
  • 290620Z 28011KT 9999 -RA BKN008 BKN035 16/15 Q0997 RERA NOSIG
  • 290554Z 27014KT 9999 -RA BKN007 BKN035 16/15 Q0997 RERA TEMPO RA
  • 290550Z 27014KT 9999 RA BKN007 BKN035 16/15 Q0997 TEMPO -RA
  • 290520Z 28011KT 9999 RA BKN006 BKN035 16/16 Q0996 NOSIG
  • 290450Z 29008KT 7000 RA BKN005 BKN035 16/16 Q0996 TEMPO 4000
  • 290420Z 29005KT 5000 RA BKN006 BKN035 16/15 Q0996 TEMPO 4000
  • 290411Z 29006KT 5000 RA BKN006 BKN035 16/15 Q0996 TEMPO 4000

TAF TAF EDDN
Valide du 29 à 06h jusqu'au 30 à 06h UTC


290500Z 2906/3006 29010KT 9000 SCT006 BKN035
TEMPO 2906/2909 4000 RA BKN006
PROB30
TEMPO 2909/2911 BKN012
BECMG 2914/2916 25005KT
PROB30
TEMPO 2917/2920 26015G30KT TSRA BKN040CB
Pas de NOTAMs connus pour ce terrain.
1 SIGMET publié pour la FIR München (EDMM) :
 
Orages obscurcis
EDMM SIGMET 3 VALID 290647/290747 EDZM
EDMM MUNCHEN FIR OBSC TS OBS N OF N5045 AND E OF E01345 TOP FL300 MOV N NC=



MET'MAP, la Météo Aéronautique d'un coup d'oeil ! - Copyright ORBIFLY Décembre 2007 - Disclaimer

ORBIFLY MET'MAP TEAM :

Programmation & Développement : Alexandra Zaïnal
Conception & Développement : Baudouin d'Aumeries
Co-Programmation & Développement : Marc-Olivier Méhu
Soutien technique & logistique : Manuel Goepfert

Contact : metmap@orbifly.com




SOURCES & CREDITS :

   NOAA